createdAt,value
2019-01-04T00:01:19.757Z,20.60
2019-01-04T00:03:48.688Z,17.83
2019-01-04T00:06:17.576Z,19.43
2019-01-04T00:08:46.519Z,21.20
2019-01-04T00:11:15.505Z,27.90
2019-01-04T00:13:44.600Z,17.13
2019-01-04T00:16:13.623Z,19.97
2019-01-04T00:18:42.588Z,21.70
2019-01-04T00:21:11.612Z,20.43
2019-01-04T00:23:40.601Z,21.87
2019-01-04T00:26:09.611Z,17.50
2019-01-04T00:28:38.620Z,22.57
2019-01-04T00:31:07.555Z,20.00
2019-01-04T00:33:36.572Z,20.80
2019-01-04T00:36:05.636Z,21.13
2019-01-04T00:38:34.664Z,22.00
2019-01-04T00:41:03.711Z,24.17
2019-01-04T00:43:32.740Z,21.80
2019-01-04T00:46:01.792Z,27.10
2019-01-04T00:48:30.810Z,23.30
2019-01-04T00:50:59.821Z,19.50
2019-01-04T00:53:28.830Z,26.40
2019-01-04T00:56:34.748Z,23.23
2019-01-04T00:59:45.992Z,21.23
2019-01-04T01:03:10.332Z,28.20
2019-01-04T01:06:34.461Z,26.37
2019-01-04T01:09:47.634Z,32.97
2019-01-04T01:13:07.692Z,25.50
2019-01-04T01:16:28.241Z,29.57
2019-01-04T01:19:40.052Z,27.67
2019-01-04T01:22:47.076Z,25.67
2019-01-04T01:25:53.264Z,23.83
2019-01-04T01:29:05.233Z,26.93
2019-01-04T01:31:59.560Z,24.87
2019-01-04T01:34:50.175Z,27.13
2019-01-04T01:38:00.173Z,27.23
2019-01-04T01:40:59.240Z,36.77
2019-01-04T01:44:12.664Z,26.37
2019-01-04T01:46:49.583Z,22.73
2019-01-04T01:49:56.723Z,20.80
2019-01-04T01:52:35.788Z,24.87
2019-01-04T01:55:04.892Z,26.73
2019-01-04T01:57:33.752Z,27.70
2019-01-04T02:00:02.797Z,22.10
2019-01-04T02:02:31.664Z,27.50
2019-01-04T02:05:00.673Z,33.37
2019-01-04T02:07:29.696Z,30.00
2019-01-04T02:09:58.696Z,30.27
2019-01-04T02:12:27.621Z,29.80
2019-01-04T02:14:56.858Z,26.63
2019-01-04T02:17:26.061Z,30.17
2019-01-04T02:19:54.983Z,34.27
2019-01-04T02:22:24.046Z,33.07
2019-01-04T02:24:52.963Z,30.57
2019-01-04T02:27:28.065Z,40.27
2019-01-04T02:29:56.992Z,38.97
2019-01-04T02:32:25.970Z,41.83
2019-01-04T02:34:55.000Z,46.80
2019-01-04T02:37:23.859Z,35.43
2019-01-04T02:39:52.861Z,45.23
2019-01-04T02:42:21.819Z,41.17
2019-01-04T02:44:50.757Z,45.80
2019-01-04T02:47:19.675Z,44.83
2019-01-04T02:49:48.729Z,51.17
2019-01-04T02:52:17.618Z,40.93
2019-01-04T02:54:46.464Z,53.17
2019-01-04T02:57:15.324Z,55.40
2019-01-04T02:59:44.181Z,57.93
2019-01-04T03:02:13.279Z,58.40
2019-01-04T03:04:42.205Z,47.57
2019-01-04T03:07:11.064Z,58.10
2019-01-04T03:09:40.048Z,52.67
2019-01-04T03:12:08.909Z,63.57
2019-01-04T03:14:38.100Z,61.50
2019-01-04T03:17:07.093Z,60.43
2019-01-04T03:19:36.028Z,48.53
2019-01-04T03:22:05.043Z,60.03
2019-01-04T03:24:34.041Z,60.53
2019-01-04T03:27:02.968Z,50.87
2019-01-04T03:29:31.885Z,61.30
2019-01-04T03:32:00.811Z,64.80
2019-01-04T03:34:29.684Z,70.60
2019-01-04T03:36:58.696Z,73.97
2019-01-04T03:39:27.565Z,72.97
2019-01-04T03:41:56.653Z,76.47
2019-01-04T03:44:25.607Z,70.87
2019-01-04T03:46:54.611Z,70.20
2019-01-04T03:49:23.572Z,98.77
2019-01-04T03:51:52.587Z,91.37
2019-01-04T03:54:21.996Z,102.37
2019-01-04T03:56:51.308Z,87.50
2019-01-04T03:59:20.495Z,86.03
2019-01-04T04:01:49.406Z,70.80
2019-01-04T04:04:18.260Z,70.30
2019-01-04T04:06:47.238Z,106.10
2019-01-04T04:09:16.238Z,86.77
2019-01-04T04:11:45.265Z,109.93
2019-01-04T04:14:14.237Z,127.53
2019-01-04T04:16:43.236Z,134.90
2019-01-04T04:19:12.148Z,118.37
2019-01-04T04:21:41.180Z,85.00
2019-01-04T04:24:10.113Z,123.60
2019-01-04T04:26:39.176Z,79.63
2019-01-04T04:29:08.167Z,192.90
2019-01-04T04:31:37.041Z,106.50
2019-01-04T04:34:05.956Z,113.47
2019-01-04T04:36:34.933Z,128.60
2019-01-04T04:39:05.772Z,129.77
2019-01-04T04:41:34.691Z,113.50
2019-01-04T04:44:03.689Z,97.73
2019-01-04T04:46:32.618Z,93.67
2019-01-04T04:49:01.537Z,158.83
2019-01-04T04:51:30.653Z,255.33
2019-01-04T04:53:59.573Z,134.00
2019-01-04T04:56:28.599Z,156.57
2019-01-04T04:58:57.469Z,165.27
2019-01-04T05:01:45.585Z,184.03
2019-01-04T05:04:15.824Z,109.10
2019-01-04T05:06:44.786Z,121.60
2019-01-04T05:09:13.700Z,115.77
2019-01-04T05:11:42.613Z,99.23
2019-01-04T05:14:11.624Z,139.70
2019-01-04T05:16:40.565Z,132.83
2019-01-04T05:19:09.532Z,107.77
2019-01-04T05:21:38.531Z,117.30
2019-01-04T05:24:07.540Z,126.70
2019-01-04T05:26:36.508Z,107.20
2019-01-04T05:29:05.514Z,90.07
2019-01-04T05:31:34.524Z,115.97
2019-01-04T05:34:03.584Z,77.60
2019-01-04T05:36:32.620Z,102.63
2019-01-04T05:39:01.613Z,87.10
2019-01-04T05:41:30.497Z,109.77
2019-01-04T05:43:59.448Z,105.80
2019-01-04T05:46:28.473Z,95.10
2019-01-04T05:48:57.616Z,103.03
2019-01-04T05:51:26.485Z,105.43
2019-01-04T05:53:55.394Z,101.80
2019-01-04T05:56:24.486Z,100.00
2019-01-04T05:58:53.591Z,96.47
2019-01-04T06:01:22.654Z,99.43
2019-01-04T06:03:51.957Z,90.30
2019-01-04T06:06:20.952Z,92.00
2019-01-04T06:08:49.840Z,103.27
2019-01-04T06:11:18.798Z,95.00
2019-01-04T06:13:47.784Z,99.70
2019-01-04T06:16:16.774Z,87.13
2019-01-04T06:18:45.732Z,102.27
2019-01-04T06:21:14.665Z,85.37
2019-01-04T06:23:43.600Z,110.23
2019-01-04T06:26:18.384Z,71.20
2019-01-04T06:28:47.428Z,90.47
2019-01-04T06:31:16.355Z,79.13
2019-01-04T06:33:45.315Z,75.80
2019-01-04T06:36:14.416Z,73.93
2019-01-04T06:38:43.335Z,75.47
2019-01-04T06:41:12.200Z,66.87
2019-01-04T06:43:41.108Z,79.17
2019-01-04T06:46:10.028Z,72.73
2019-01-04T06:48:39.248Z,69.60
2019-01-04T06:51:08.272Z,66.07
2019-01-04T06:53:37.232Z,62.60
2019-01-04T06:56:07.292Z,61.57
2019-01-04T06:58:36.280Z,68.53
2019-01-04T07:01:05.337Z,62.53
2019-01-04T07:03:34.353Z,64.53
2019-01-04T07:06:03.277Z,64.63
2019-01-04T07:08:32.120Z,64.03
2019-01-04T07:11:01.064Z,65.23
2019-01-04T07:13:29.991Z,59.80
2019-01-04T07:15:58.934Z,65.90
2019-01-04T07:18:27.952Z,64.33
2019-01-04T07:20:56.966Z,69.23
2019-01-04T07:23:25.831Z,61.97
2019-01-04T07:25:54.873Z,65.03
2019-01-04T07:28:23.793Z,62.03
2019-01-04T07:30:52.785Z,64.73
2019-01-04T07:33:21.723Z,58.43
2019-01-04T07:35:50.683Z,69.93
2019-01-04T07:38:19.760Z,56.63
2019-01-04T07:40:48.696Z,63.87
2019-01-04T07:43:17.665Z,64.50
2019-01-04T07:45:46.615Z,60.77
2019-01-04T07:48:15.565Z,64.27
2019-01-04T07:50:44.654Z,69.50
2019-01-04T07:53:13.693Z,70.60
2019-01-04T07:55:42.688Z,64.07
2019-01-04T07:58:11.728Z,67.93
2019-01-04T08:00:40.789Z,71.97
2019-01-04T08:03:22.492Z,68.40
2019-01-04T08:05:53.051Z,69.27
2019-01-04T08:08:22.069Z,61.63
2019-01-04T08:10:50.997Z,65.30
2019-01-04T08:13:19.864Z,58.97
2019-01-04T08:15:48.932Z,79.87
2019-01-04T08:18:17.822Z,81.90
2019-01-04T08:20:46.820Z,68.07
2019-01-04T08:23:15.836Z,67.37
2019-01-04T08:25:44.779Z,61.37
2019-01-04T08:28:14.464Z,65.67
2019-01-04T08:30:43.493Z,66.30
2019-01-04T08:33:12.534Z,70.73
2019-01-04T08:35:41.473Z,62.27
2019-01-04T08:38:10.429Z,71.00
2019-01-04T08:40:39.351Z,55.57
2019-01-04T08:43:08.568Z,50.63
2019-01-04T08:45:37.616Z,50.63
2019-01-04T08:48:06.557Z,54.03
2019-01-04T08:50:35.638Z,47.60
2019-01-04T08:53:04.715Z,50.50
2019-01-04T08:55:33.628Z,55.37
2019-01-04T08:58:02.633Z,53.63
2019-01-04T09:00:31.653Z,52.57
2019-01-04T09:03:00.506Z,50.50
2019-01-04T09:05:29.552Z,61.60
2019-01-04T09:07:58.490Z,53.57
2019-01-04T09:10:27.560Z,46.73
2019-01-04T09:12:56.492Z,43.53
2019-01-04T09:15:25.475Z,44.83
2019-01-04T09:17:54.428Z,38.93
2019-01-04T09:20:23.439Z,48.97
2019-01-04T09:22:52.966Z,45.30
2019-01-04T09:25:23.221Z,44.77
2019-01-04T09:27:52.217Z,38.63
2019-01-04T09:30:21.284Z,34.60
2019-01-04T09:32:50.296Z,28.57
2019-01-04T09:35:19.239Z,31.27
2019-01-04T09:37:48.387Z,29.20
2019-01-04T09:40:17.389Z,27.70
2019-01-04T09:42:47.907Z,21.10
2019-01-04T09:45:16.945Z,29.30
2019-01-04T09:47:45.929Z,25.50
2019-01-04T09:50:14.953Z,24.27
2019-01-04T09:52:43.966Z,20.83
2019-01-04T09:55:14.113Z,23.27
2019-01-04T09:57:43.170Z,20.80
2019-01-04T10:00:13.113Z,22.67
2019-01-04T10:02:48.362Z,22.10
2019-01-04T10:05:17.276Z,21.60
2019-01-04T10:07:46.275Z,21.77
2019-01-04T10:10:15.528Z,21.63
2019-01-04T10:12:44.525Z,20.33
2019-01-04T10:15:15.693Z,18.23
2019-01-04T10:17:44.744Z,19.27
2019-01-04T10:20:13.723Z,16.87
2019-01-04T10:22:42.668Z,16.70
2019-01-04T10:25:11.736Z,18.07
2019-01-04T10:27:40.793Z,20.97
2019-01-04T10:30:11.945Z,17.60
2019-01-04T10:32:41.088Z,13.77
2019-01-04T10:35:10.574Z,12.43
2019-01-04T10:37:39.822Z,16.40
2019-01-04T10:40:11.205Z,13.30
2019-01-04T10:42:39.528Z,13.10
2019-01-04T10:45:08.544Z,15.17
2019-01-04T10:47:37.581Z,11.80
2019-01-04T10:50:06.603Z,13.60
2019-01-04T10:52:35.620Z,12.20
2019-01-04T10:55:04.914Z,10.80
2019-01-04T10:57:33.857Z,15.03
2019-01-04T11:00:03.008Z,12.43
2019-01-04T11:02:31.837Z,11.60
2019-01-04T11:05:01.026Z,12.10
2019-01-04T11:07:29.863Z,10.90
2019-01-04T11:09:58.883Z,14.07
2019-01-04T11:12:27.892Z,13.73
2019-01-04T11:14:56.857Z,12.03
2019-01-04T11:17:25.856Z,14.40
2019-01-04T11:19:54.779Z,12.13
2019-01-04T11:23:06.693Z,11.30
2019-01-04T11:26:07.071Z,14.60
2019-01-04T11:29:00.653Z,13.17
2019-01-04T11:31:39.636Z,14.27
2019-01-04T11:34:41.140Z,12.90
2019-01-04T11:37:40.953Z,13.10
2019-01-04T11:40:26.932Z,11.77
2019-01-04T11:43:34.408Z,11.07
2019-01-04T11:46:20.646Z,13.07
2019-01-04T11:49:12.260Z,14.17
2019-01-04T11:52:34.208Z,14.33
2019-01-04T11:55:03.206Z,14.07
2019-01-04T11:57:32.196Z,16.67
2019-01-04T12:00:13.192Z,16.77
2019-01-04T12:02:42.217Z,17.87
2019-01-04T12:05:11.912Z,15.73
2019-01-04T12:07:40.864Z,14.57
2019-01-04T12:10:09.803Z,15.27
2019-01-04T12:12:38.885Z,13.63
2019-01-04T12:15:08.008Z,17.80
2019-01-04T12:17:37.010Z,21.17
2019-01-04T12:20:06.913Z,19.47
2019-01-04T12:22:36.026Z,21.00
2019-01-04T12:25:05.091Z,18.03
2019-01-04T12:27:34.016Z,21.40
2019-01-04T12:30:03.043Z,21.67
2019-01-04T12:32:31.884Z,20.97
2019-01-04T12:35:00.924Z,19.83
2019-01-04T12:37:29.884Z,26.67
2019-01-04T12:39:58.897Z,22.30
2019-01-04T12:42:27.765Z,24.00
2019-01-04T12:44:56.716Z,23.63
2019-01-04T12:47:25.721Z,21.70
2019-01-04T12:49:54.649Z,23.87
2019-01-04T12:52:23.631Z,24.23
2019-01-04T12:54:53.592Z,19.17
2019-01-04T12:57:22.492Z,26.83
2019-01-04T12:59:51.537Z,23.00
2019-01-04T13:02:20.507Z,25.67
2019-01-04T13:04:49.420Z,26.37
2019-01-04T13:07:18.368Z,27.60
2019-01-04T13:09:47.217Z,29.77
2019-01-04T13:12:16.176Z,30.20
2019-01-04T13:14:45.133Z,29.23
2019-01-04T13:17:15.380Z,25.00
2019-01-04T13:19:44.373Z,28.13
2019-01-04T13:22:13.500Z,29.17
2019-01-04T13:24:42.427Z,32.47
2019-01-04T13:27:11.356Z,26.80
2019-01-04T13:29:40.420Z,29.20
2019-01-04T13:32:09.328Z,28.27
2019-01-04T13:34:38.257Z,24.97
2019-01-04T13:37:07.316Z,24.73
2019-01-04T13:39:42.372Z,24.97
2019-01-04T13:42:11.429Z,23.70
2019-01-04T13:44:40.355Z,26.67
2019-01-04T13:47:09.287Z,22.83
2019-01-04T13:49:38.128Z,23.00
2019-01-04T13:52:07.155Z,27.97
2019-01-04T13:54:36.093Z,26.50
2019-01-04T13:57:05.117Z,25.33
2019-01-04T13:59:33.978Z,23.73
2019-01-04T14:02:02.972Z,24.70
2019-01-04T14:04:31.926Z,25.80
2019-01-04T14:07:00.872Z,24.53
2019-01-04T14:09:29.705Z,26.87
2019-01-04T14:11:58.720Z,23.50
2019-01-04T14:14:27.640Z,31.63
2019-01-04T14:16:56.547Z,32.40
2019-01-04T14:19:25.486Z,33.67
2019-01-04T14:21:54.559Z,30.13
2019-01-04T14:24:23.576Z,32.70
2019-01-04T14:26:52.557Z,27.27
2019-01-04T14:29:21.572Z,36.73
2019-01-04T14:31:50.600Z,29.80
2019-01-04T14:34:19.635Z,38.57
2019-01-04T14:36:48.640Z,40.93
2019-01-04T14:39:17.631Z,39.77
2019-01-04T14:41:46.728Z,41.83
2019-01-04T14:44:15.737Z,45.73
2019-01-04T14:46:44.693Z,51.90
2019-01-04T14:49:14.611Z,40.67
2019-01-04T14:51:43.597Z,52.93
2019-01-04T14:54:12.613Z,41.87
2019-01-04T14:56:41.560Z,42.73
2019-01-04T14:59:10.659Z,48.63
2019-01-04T15:01:39.669Z,47.27
2019-01-04T15:04:08.640Z,52.30
2019-01-04T15:06:37.664Z,52.83
2019-01-04T15:09:07.467Z,51.83
2019-01-04T15:11:36.470Z,50.70
2019-01-04T15:14:05.474Z,56.77
2019-01-04T15:16:34.416Z,47.97
2019-01-04T15:19:03.552Z,55.53
2019-01-04T15:21:32.548Z,58.20
2019-01-04T15:24:01.650Z,46.43
2019-01-04T15:26:30.585Z,53.80
2019-01-04T15:28:59.580Z,52.40
2019-01-04T15:31:28.544Z,55.93
2019-01-04T15:33:57.472Z,52.07
2019-01-04T15:36:26.524Z,58.00
2019-01-04T15:38:55.511Z,50.27
2019-01-04T15:41:24.473Z,54.20
2019-01-04T15:43:53.417Z,60.17
2019-01-04T15:46:22.446Z,56.53
2019-01-04T15:48:51.556Z,47.90
2019-01-04T15:51:20.528Z,50.23
2019-01-04T15:53:49.572Z,58.93
2019-01-04T15:56:18.745Z,49.17
2019-01-04T15:58:47.676Z,49.10
2019-01-04T16:01:16.629Z,51.20
2019-01-04T16:03:45.480Z,45.73
2019-01-04T16:06:14.449Z,51.43
2019-01-04T16:08:43.502Z,65.60
2019-01-04T16:11:12.556Z,50.47
2019-01-04T16:13:41.595Z,49.13
2019-01-04T16:16:10.473Z,55.97
2019-01-04T16:18:39.550Z,45.80
2019-01-04T16:21:08.533Z,49.83
2019-01-04T16:23:37.511Z,53.87
2019-01-04T16:26:06.521Z,48.13
2019-01-04T16:28:35.492Z,46.93
2019-01-04T16:31:04.481Z,45.87
2019-01-04T16:33:33.461Z,49.53
2019-01-04T16:36:02.493Z,44.83
2019-01-04T16:38:31.468Z,42.40
2019-01-04T16:41:00.520Z,47.23
2019-01-04T16:43:29.588Z,45.20
2019-01-04T16:45:58.514Z,45.03
2019-01-04T16:48:27.521Z,46.80
2019-01-04T16:50:56.500Z,42.57
2019-01-04T16:53:25.440Z,42.80
2019-01-04T16:55:54.604Z,37.77
2019-01-04T16:58:23.808Z,46.00
2019-01-04T17:00:52.799Z,42.37
2019-01-04T17:03:21.732Z,46.53
2019-01-04T17:05:50.625Z,49.93
2019-01-04T17:08:22.396Z,45.87
2019-01-04T17:10:51.369Z,48.70
2019-01-04T17:13:20.452Z,44.57
2019-01-04T17:15:49.382Z,62.57
2019-01-04T17:18:18.328Z,46.83
2019-01-04T17:20:47.265Z,46.77
2019-01-04T17:23:16.322Z,50.13
2019-01-04T17:25:45.204Z,41.43
2019-01-04T17:28:14.304Z,49.17
2019-01-04T17:30:43.309Z,52.03
2019-01-04T17:33:12.269Z,55.57
2019-01-04T17:35:41.228Z,45.97
2019-01-04T17:38:10.216Z,47.23
2019-01-04T17:40:39.296Z,53.97
2019-01-04T17:43:08.459Z,51.10
2019-01-04T17:45:37.479Z,45.47
2019-01-04T17:48:06.433Z,46.77
2019-01-04T17:50:35.467Z,48.07
2019-01-04T17:53:04.514Z,44.50
2019-01-04T17:55:33.529Z,53.40
2019-01-04T17:58:02.614Z,46.17
2019-01-04T18:00:31.933Z,43.23
2019-01-04T18:03:01.091Z,43.80
2019-01-04T18:05:30.060Z,47.67
2019-01-04T18:07:59.048Z,48.57
2019-01-04T18:10:28.600Z,41.23
2019-01-04T18:12:58.457Z,47.10
2019-01-04T18:15:27.497Z,44.33
2019-01-04T18:17:58.741Z,51.27
2019-01-04T18:20:27.279Z,53.17
2019-01-04T18:22:56.241Z,52.13
2019-01-04T18:25:25.105Z,56.97
2019-01-04T18:27:54.145Z,50.63
2019-01-04T18:30:23.189Z,50.53
2019-01-04T18:32:52.184Z,61.70
2019-01-04T18:35:21.128Z,57.13
2019-01-04T18:37:50.128Z,52.27
2019-01-04T18:40:19.143Z,53.27
2019-01-04T18:42:48.160Z,53.43
2019-01-04T18:45:17.234Z,56.63
2019-01-04T18:47:46.209Z,53.30
2019-01-04T18:50:16.180Z,49.30
2019-01-04T18:52:45.088Z,56.63
2019-01-04T18:55:14.050Z,61.03
2019-01-04T18:57:43.010Z,61.30
2019-01-04T19:00:12.556Z,58.63
2019-01-04T19:02:41.508Z,54.30
2019-01-04T19:05:10.524Z,58.70
2019-01-04T19:07:39.568Z,68.33
2019-01-04T19:10:26.441Z,54.90
2019-01-04T19:12:56.494Z,52.80
2019-01-04T19:15:25.557Z,55.23
2019-01-04T19:17:54.522Z,51.83
2019-01-04T19:20:23.585Z,49.20
2019-01-04T19:22:52.525Z,55.77
2019-01-04T19:25:21.577Z,55.53
2019-01-04T19:27:50.593Z,65.17
2019-01-04T19:30:19.524Z,62.37
2019-01-04T19:32:48.475Z,54.53
2019-01-04T19:35:17.416Z,71.70
2019-01-04T19:37:46.385Z,66.93
2019-01-04T19:40:15.403Z,64.17
2019-01-04T19:42:44.467Z,58.13
2019-01-04T19:45:13.449Z,55.07
2019-01-04T19:47:42.413Z,75.00
2019-01-04T19:50:16.876Z,75.33
2019-01-04T19:52:45.845Z,69.63
2019-01-04T19:55:14.794Z,76.57
2019-01-04T19:57:43.848Z,66.80
2019-01-04T20:00:14.077Z,70.80
2019-01-04T20:02:43.094Z,88.87
2019-01-04T20:05:20.472Z,84.70
2019-01-04T20:09:04.762Z,75.37
2019-01-04T20:12:50.930Z,85.63
2019-01-04T20:16:20.413Z,92.97
2019-01-04T20:19:27.327Z,93.07
2019-01-04T20:22:14.116Z,85.50
2019-01-04T20:25:05.216Z,98.33
2019-01-04T20:27:45.794Z,88.47
2019-01-04T20:30:36.929Z,105.90
2019-01-04T20:33:17.868Z,118.40
2019-01-04T20:36:24.288Z,117.87
2019-01-04T20:39:12.077Z,120.20
2019-01-04T20:41:58.548Z,111.83
2019-01-04T20:44:52.666Z,120.20
2019-01-04T20:47:40.788Z,173.00
2019-01-04T20:50:27.280Z,135.03
2019-01-04T20:53:30.497Z,102.53
2019-01-04T20:56:12.250Z,113.97
2019-01-04T20:59:12.447Z,115.27
2019-01-04T21:01:53.400Z,114.47
2019-01-04T21:04:53.348Z,114.67
2019-01-04T21:07:53.274Z,103.07
2019-01-04T21:10:39.966Z,109.63
2019-01-04T21:13:43.019Z,114.80
2019-01-04T21:16:35.151Z,115.40
2019-01-04T21:19:28.803Z,108.53
2019-01-04T21:22:15.768Z,103.73
2019-01-04T21:25:10.964Z,86.40
2019-01-04T21:28:01.567Z,107.07
2019-01-04T21:31:01.619Z,108.73
2019-01-04T21:33:55.688Z,114.33
2019-01-04T21:36:41.807Z,106.03
2019-01-04T21:39:46.444Z,102.03
2019-01-04T21:42:33.129Z,110.70
2019-01-04T21:45:29.396Z,121.80
2019-01-04T21:48:10.157Z,142.87
2019-01-04T21:51:04.114Z,113.07
2019-01-04T21:54:04.158Z,119.17
2019-01-04T21:56:55.185Z,105.27
2019-01-04T21:59:44.949Z,142.23
2019-01-04T22:02:43.938Z,98.17
2019-01-04T22:05:30.456Z,102.70
2019-01-04T22:08:20.476Z,109.07
2019-01-04T22:11:08.613Z,111.20
2019-01-04T22:13:50.473Z,110.37
2019-01-04T22:16:43.814Z,116.70
2019-01-04T22:19:26.040Z,99.73
2019-01-04T22:22:31.395Z,95.97
2019-01-04T22:25:34.580Z,137.47
2019-01-04T22:28:31.802Z,115.77
2019-01-04T22:31:18.653Z,120.50
2019-01-04T22:34:05.462Z,110.57
2019-01-04T22:36:51.573Z,117.40
2019-01-04T22:39:39.309Z,113.90
2019-01-04T22:42:33.695Z,113.77
2019-01-04T22:45:20.683Z,112.10
2019-01-04T22:48:00.570Z,109.13
2019-01-04T22:50:54.745Z,111.80
2019-01-04T22:53:41.312Z,99.80
2019-01-04T22:56:30.706Z,98.83
2019-01-04T22:59:17.640Z,106.00
2019-01-04T23:02:05.268Z,102.93
2019-01-04T23:04:58.435Z,110.70
2019-01-04T23:07:44.226Z,119.93
2019-01-04T23:10:38.942Z,123.53
2019-01-04T23:13:50.171Z,128.00
2019-01-04T23:16:46.634Z,123.27
2019-01-04T23:19:33.393Z,131.43
2019-01-04T23:22:25.781Z,124.20
2019-01-04T23:25:22.846Z,117.70
2019-01-04T23:28:09.558Z,117.30
2019-01-04T23:30:56.603Z,121.43
2019-01-04T23:33:44.676Z,111.40
2019-01-04T23:36:49.106Z,123.83
2019-01-04T23:39:37.487Z,124.87
2019-01-04T23:42:23.933Z,108.03
2019-01-04T23:45:15.085Z,126.73
2019-01-04T23:48:14.252Z,116.63
2019-01-04T23:50:57.454Z,108.00
2019-01-04T23:54:00.837Z,101.03
2019-01-04T23:56:53.054Z,88.60
2019-01-04T23:59:39.940Z,92.10
